Carnival Victory — 3FFL8 — position and weather

sailwx.info

Track history (hours):
 
Tides and Currents Weather Stations Pressure Air Temp Water Temp Dewpoint Dewpoint Depression Visibility Wind Speed Wind Dir Waves Ship Positions

Carnival Victory

Operator: Carnival Cruise Lines

Last reported at 2019-Jan-24 04:09 UTC. Time now 2019-Jan-24 10:54 UTC.
Position N 20°45' W 086°49'.

Type: Passenger vessel. MMSI: 355263000.

Date/timePositionNaut miles runAvg speedWind from/ knotsBaromVisibWave heightAir tempDewpointWater temp
2019-Jan-24 04:09N 20°45' W 086°49'320.2
2019-Jan-24 04:00N 20°43' W 086°51'1020.4
2019-Jan-24 03:30N 20°35' W 086°57'612.2
2019-Jan-24 03:00N 20°29' W 086°59'0 0.1
2019-Jan-24 02:28N 20°29' W 086°59'0 0.0
2019-Jan-24 01:58N 20°29' W 086°59'0 0.0
2019-Jan-24 01:28N 20°29' W 086°59'0 0.0
2019-Jan-24 00:55N 20°29' W 086°59'0 0.0
2019-Jan-24 00:28N 20°29' W 086°59'0 0.0
2019-Jan-23 23:58N 20°29' W 086°59'0 0.0
2019-Jan-23 23:25N 20°29' W 086°59'0 0.0
2019-Jan-23 22:58N 20°29' W 086°59'0 0.0
2019-Jan-23 22:28N 20°29' W 086°59'0 0.0
2019-Jan-23 21:58N 20°29' W 086°59'0 0.0
2019-Jan-23 21:28N 20°29' W 086°59'0 0.0
2019-Jan-23 20:58N 20°29' W 086°59'0 0.0
2019-Jan-23 20:28N 20°29' W 086°59'0 0.0
2019-Jan-23 19:58N 20°29' W 086°59'0 0.0
2019-Jan-23 19:28N 20°29' W 086°59'0 0.0
2019-Jan-23 18:58N 20°29' W 086°59'0 0.0
2019-Jan-23 18:28N 20°29' W 086°59'0 0.0
2019-Jan-23 17:58N 20°29' W 086°59'0 0.0
2019-Jan-23 17:28N 20°29' W 086°59'0 0.0
2019-Jan-23 17:00N 20°29' W 086°59'2 4.0
2019-Jan-23 16:30N 20°31' W 086°59'611.5
2019-Jan-23 16:00N 20°36' W 086°57'917.1
2019-Jan-23 15:30N 20°42' W 086°50'47212.3
2019-Jan-22 01:02N 25°12' W 079°49'114.3
2019-Jan-22 01:00N 25°12' W 079°49'714.0
2019-Jan-22 00:30N 25°19' W 079°47'612.9
2019-Jan-22 00:00N 25°25' W 079°47'713.2
2019-Jan-21 23:30N 25°32' W 079°46'613.0
2019-Jan-21 23:01N 25°38' W 079°49'815.1
2019-Jan-21 22:31N 25°42' W 079°56'714.3
2019-Jan-21 22:00N 25°45' W 080°03'5 9.0
2019-Jan-21 21:30N 25°46' W 080°08'2 3.8
2019-Jan-21 20:59N 25°47' W 080°10'0 0.0
2019-Jan-21 20:29N 25°47' W 080°10'0 0.0
2019-Jan-21 19:59N 25°47' W 080°10'0 0.0
2019-Jan-21 19:29N 25°47' W 080°10'0 0.0
2019-Jan-21 18:56N 25°47' W 080°10'0 0.0
2019-Jan-21 18:26N 25°47' W 080°10'0 0.0
2019-Jan-21 17:56N 25°47' W 080°10'0 0.0
2019-Jan-21 17:26N 25°47' W 080°10'0 0.0
2019-Jan-21 16:53N 25°47' W 080°10'0 0.0
2019-Jan-21 16:23N 25°47' W 080°10'0 0.0
2019-Jan-21 15:59N 25°47' W 080°10'0 0.0
2019-Jan-21 15:29N 25°47' W 080°10'0 0.0
2019-Jan-21 14:59N 25°47' W 080°10'0 0.0
2019-Jan-21 14:26N 25°47' W 080°10'0 0.0
2019-Jan-21 13:56N 25°47' W 080°10'0 0.0
2019-Jan-21 13:26N 25°47' W 080°10'0 0.0
2019-Jan-21 12:59N 25°47' W 080°10'0 0.0
2019-Jan-21 12:29N 25°47' W 080°10'0 0.0
2019-Jan-21 11:59N 25°47' W 080°10'0 0.9
2019-Jan-21 11:30N 25°47' W 080°11'4 8.7
2019-Jan-21 11:00N 25°46' W 080°06'5 9.0
2019-Jan-21 10:30N 25°47' W 080°01'4 8.6
2019-Jan-21 10:00N 25°50' W 079°57'5 9.4
2019-Jan-21 09:30N 25°52' W 079°53'4 8.9
2019-Jan-21 09:00N 25°55' W 079°49'4 7.9
2019-Jan-21 08:30N 25°57' W 079°45'5 9.8
2019-Jan-21 08:00N 25°59' W 079°40'5 9.8
2019-Jan-21 07:30N 26°02' W 079°36'5 9.9
2019-Jan-21 07:00N 26°05' W 079°31'510.0
2019-Jan-21 06:30N 26°08' W 079°27'510.4
2019-Jan-21 05:59N 26°10' W 079°22'510.1
2019-Jan-21 05:30N 26°13' W 079°17'5 9.0
2019-Jan-21 05:00N 26°15' W 079°13'2 0.0
2019-Jan-19 02:51N 26°15' W 079°11'410.7
2019-Jan-19 02:30N 26°14' W 079°14'611.3
2019-Jan-19 02:00N 26°11' W 079°20'612.1
2019-Jan-19 01:30N 26°08' W 079°26'612.4
2019-Jan-19 01:00N 26°04' W 079°31'612.1
2019-Jan-19 00:30N 26°01' W 079°37'612.5
2019-Jan-19 00:00N 25°58' W 079°43'612.8
2019-Jan-18 23:30N 25°54' W 079°49'612.9
2019-Jan-18 23:00N 25°51' W 079°55'612.7
2019-Jan-18 22:30N 25°48' W 080°01'510.5
2019-Jan-18 22:01N 25°46' W 080°06'4 7.9
2019-Jan-18 21:31N 25°47' W 080°11'0 0.5
2019-Jan-18 20:53N 25°47' W 080°10'0 0.0
2019-Jan-18 20:23N 25°47' W 080°10'0 0.0
2019-Jan-18 19:56N 25°47' W 080°10'0 0.0
2019-Jan-18 19:29N 25°47' W 080°10'0 0.0
2019-Jan-18 18:56N 25°47' W 080°10'0 0.0
2019-Jan-18 18:26N 25°47' W 080°10'0 0.0
2019-Jan-18 17:59N 25°47' W 080°10'0 0.0
2019-Jan-18 17:23N 25°47' W 080°10'0 0.0
2019-Jan-18 16:56N 25°47' W 080°10'0 0.0
2019-Jan-18 16:26N 25°47' W 080°10'0 0.0
2019-Jan-18 15:59N 25°47' W 080°10'0 0.0
2019-Jan-18 15:29N 25°47' W 080°10'0 0.0
2019-Jan-18 14:59N 25°47' W 080°10'0 0.0
2019-Jan-18 14:29N 25°47' W 080°10'0 0.0
2019-Jan-18 13:59N 25°47' W 080°10'0 0.0
2019-Jan-18 13:29N 25°47' W 080°10'0 0.0
2019-Jan-18 12:59N 25°47' W 080°10'0 0.0
2019-Jan-18 12:29N 25°47' W 080°10'0 0.0
2019-Jan-18 12:00N 25°47' W 080°10'1 1.3
2019-Jan-18 11:30N 25°46' W 080°10'5 9.5
2019-Jan-18 11:00N 25°46' W 080°04'5 9.3
2019-Jan-18 10:30N 25°45' W 079°59'611.8
2019-Jan-18 10:00N 25°41' W 079°55'611.7
2019-Jan-18 09:30N 25°35' W 079°53'612.2
2019-Jan-18 09:00N 25°29' W 079°53'612.4
2019-Jan-18 08:30N 25°23' W 079°52'612.3
2019-Jan-18 08:00N 25°17' W 079°51'47117.0
2019-Jan-17 04:19N 20°45' W 086°49'620.4
2019-Jan-17 04:00N 20°40' W 086°54'1312.2
2019-Jan-17 02:59N 20°29' W 086°59'0 0.0
2019-Jan-17 02:29N 20°29' W 086°59'0 0.0
2019-Jan-17 01:59N 20°29' W 086°59'0 0.0
2019-Jan-17 01:29N 20°29' W 086°59'0 0.0
2019-Jan-17 00:59N 20°29' W 086°59'0 0.0
2019-Jan-17 00:29N 20°29' W 086°59'0 0.0
2019-Jan-16 23:56N 20°29' W 086°59'0 0.0
2019-Jan-16 23:29N 20°29' W 086°59'0 0.0
2019-Jan-16 22:59N 20°29' W 086°59'0 0.0
2019-Jan-16 22:29N 20°29' W 086°59'0 0.0
2019-Jan-16 21:56N 20°29' W 086°59'0 0.0
2019-Jan-16 21:29N 20°29' W 086°59'0 0.0
2019-Jan-16 20:59N 20°29' W 086°59'0 0.0
2019-Jan-16 20:26N 20°29' W 086°59'0 0.0
2019-Jan-16 19:59N 20°29' W 086°59'0 0.0
2019-Jan-16 19:29N 20°29' W 086°59'0 0.0
2019-Jan-16 18:59N 20°29' W 086°59'0 0.0
2019-Jan-16 18:29N 20°29' W 086°59'0 0.0
2019-Jan-16 17:59N 20°29' W 086°59'0 0.0
2019-Jan-16 17:29N 20°29' W 086°59'0 0.0
2019-Jan-16 16:59N 20°29' W 086°59'0 0.3
2019-Jan-16 16:30N 20°29' W 086°59'4 7.3
2019-Jan-16 16:00N 20°32' W 086°59'510.4
2019-Jan-16 15:30N 20°37' W 086°56'612.2
2019-Jan-16 14:59N 20°41' W 086°51'47412.4
2019-Jan-15 00:56N 25°12' W 079°49'615.1
2019-Jan-15 00:30N 25°18' W 079°47'815.2
2019-Jan-15 00:00N 25°26' W 079°47'714.9
2019-Jan-14 23:30N 25°33' W 079°48'815.2
2019-Jan-14 23:00N 25°40' W 079°53'713.2
2019-Jan-14 22:30N 25°45' W 079°57'4 7.3
2019-Jan-14 22:00N 25°46' W 080°01'612.4
2019-Jan-14 21:30N 25°46' W 080°08'2 3.9
2019-Jan-14 20:58N 25°47' W 080°10'0 0.0
2019-Jan-14 20:28N 25°47' W 080°10'0 0.0
2019-Jan-14 19:58N 25°47' W 080°10'0 0.0
2019-Jan-14 19:28N 25°47' W 080°10'0 0.0
2019-Jan-14 18:58N 25°47' W 080°10'0 0.0
2019-Jan-14 18:28N 25°47' W 080°10'0 0.0
2019-Jan-14 17:58N 25°47' W 080°10'0 0.0
2019-Jan-14 17:28N 25°47' W 080°10'0 0.0
2019-Jan-14 16:58N 25°47' W 080°10'0 0.0
2019-Jan-14 16:28N 25°47' W 080°10'0 0.0
2019-Jan-14 15:52N 25°47' W 080°10'0 0.0
2019-Jan-14 15:22N 25°47' W 080°10'0 0.0
2019-Jan-14 14:52N 25°47' W 080°10'0 0.0
2019-Jan-14 14:22N 25°47' W 080°10'0 0.0
2019-Jan-14 13:58N 25°47' W 080°10'0 0.0
2019-Jan-14 13:28N 25°47' W 080°10'0 0.0
2019-Jan-14 12:58N 25°47' W 080°10'0 0.0
2019-Jan-14 12:28N 25°47' W 080°10'0 0.0
2019-Jan-14 11:55N 25°47' W 080°10'0 0.0
2019-Jan-14 11:28N 25°47' W 080°10'0 0.1
2019-Jan-14 11:00N 25°47' W 080°10'1 1.6
2019-Jan-14 10:31N 25°46' W 080°09'510.3
2019-Jan-14 10:00N 25°46' W 080°04'5 9.7
2019-Jan-14 09:30N 25°49' W 079°59'510.3
2019-Jan-14 09:00N 25°51' W 079°54'611.1
2019-Jan-14 08:30N 25°54' W 079°49'4 8.1
2019-Jan-14 08:00N 25°57' W 079°45'3 6.6
2019-Jan-14 07:30N 25°58' W 079°42'4 7.0
2019-Jan-14 07:00N 26°00' W 079°39'5 9.8
2019-Jan-14 06:30N 26°03' W 079°34'713.1
2019-Jan-14 06:00N 26°06' W 079°28'612.8
2019-Jan-14 05:31N 26°10' W 079°22'5 9.8
2019-Jan-14 05:00N 26°12' W 079°17'  
Track history (hours):
 
Tides and Currents Weather Stations Pressure Air Temp Water Temp Dewpoint Dewpoint Depression Visibility Wind Speed Wind Dir Waves Ship Positions

Carnival Victory

Operator: Carnival Cruise Lines

Last reported at 2019-Jan-24 04:09 UTC. Time now 2019-Jan-24 10:54 UTC.
Position N 20°45' W 086°49'.

Type: Passenger vessel. MMSI: 355263000.

Date/timePositionNaut miles runAvg speedWind from/ knotsBaromVisibWave heightAir tempDewpointWater temp
2019-Jan-24 04:09N 20°45' W 086°49'320.2
2019-Jan-24 04:00N 20°43' W 086°51'1020.4
2019-Jan-24 03:30N 20°35' W 086°57'612.2
2019-Jan-24 03:00N 20°29' W 086°59'0 0.1
2019-Jan-24 02:28N 20°29' W 086°59'0 0.0
2019-Jan-24 01:58N 20°29' W 086°59'0 0.0
2019-Jan-24 01:28N 20°29' W 086°59'0 0.0
2019-Jan-24 00:55N 20°29' W 086°59'0 0.0
2019-Jan-24 00:28N 20°29' W 086°59'0 0.0
2019-Jan-23 23:58N 20°29' W 086°59'0 0.0
2019-Jan-23 23:25N 20°29' W 086°59'0 0.0
2019-Jan-23 22:58N 20°29' W 086°59'0 0.0
2019-Jan-23 22:28N 20°29' W 086°59'0 0.0
2019-Jan-23 21:58N 20°29' W 086°59'0 0.0
2019-Jan-23 21:28N 20°29' W 086°59'0 0.0
2019-Jan-23 20:58N 20°29' W 086°59'0 0.0
2019-Jan-23 20:28N 20°29' W 086°59'0 0.0
2019-Jan-23 19:58N 20°29' W 086°59'0 0.0
2019-Jan-23 19:28N 20°29' W 086°59'0 0.0
2019-Jan-23 18:58N 20°29' W 086°59'0 0.0
2019-Jan-23 18:28N 20°29' W 086°59'0 0.0
2019-Jan-23 17:58N 20°29' W 086°59'0 0.0
2019-Jan-23 17:28N 20°29' W 086°59'0 0.0
2019-Jan-23 17:00N 20°29' W 086°59'2 4.0
2019-Jan-23 16:30N 20°31' W 086°59'611.5
2019-Jan-23 16:00N 20°36' W 086°57'917.1
2019-Jan-23 15:30N 20°42' W 086°50'47212.3
2019-Jan-22 01:02N 25°12' W 079°49'114.3
2019-Jan-22 01:00N 25°12' W 079°49'714.0
2019-Jan-22 00:30N 25°19' W 079°47'612.9
2019-Jan-22 00:00N 25°25' W 079°47'713.2
2019-Jan-21 23:30N 25°32' W 079°46'613.0
2019-Jan-21 23:01N 25°38' W 079°49'815.1
2019-Jan-21 22:31N 25°42' W 079°56'714.3
2019-Jan-21 22:00N 25°45' W 080°03'5 9.0
2019-Jan-21 21:30N 25°46' W 080°08'2 3.8
2019-Jan-21 20:59N 25°47' W 080°10'0 0.0
2019-Jan-21 20:29N 25°47' W 080°10'0 0.0
2019-Jan-21 19:59N 25°47' W 080°10'0 0.0
2019-Jan-21 19:29N 25°47' W 080°10'0 0.0
2019-Jan-21 18:56N 25°47' W 080°10'0 0.0
2019-Jan-21 18:26N 25°47' W 080°10'0 0.0
2019-Jan-21 17:56N 25°47' W 080°10'0 0.0
2019-Jan-21 17:26N 25°47' W 080°10'0 0.0
2019-Jan-21 16:53N 25°47' W 080°10'0 0.0
2019-Jan-21 16:23N 25°47' W 080°10'0 0.0
2019-Jan-21 15:59N 25°47' W 080°10'0 0.0
2019-Jan-21 15:29N 25°47' W 080°10'0 0.0
2019-Jan-21 14:59N 25°47' W 080°10'0 0.0
2019-Jan-21 14:26N 25°47' W 080°10'0 0.0
2019-Jan-21 13:56N 25°47' W 080°10'0 0.0
2019-Jan-21 13:26N 25°47' W 080°10'0 0.0
2019-Jan-21 12:59N 25°47' W 080°10'0 0.0
2019-Jan-21 12:29N 25°47' W 080°10'0 0.0
2019-Jan-21 11:59N 25°47' W 080°10'0 0.9
2019-Jan-21 11:30N 25°47' W 080°11'4 8.7
2019-Jan-21 11:00N 25°46' W 080°06'5 9.0
2019-Jan-21 10:30N 25°47' W 080°01'4 8.6
2019-Jan-21 10:00N 25°50' W 079°57'5 9.4
2019-Jan-21 09:30N 25°52' W 079°53'4 8.9
2019-Jan-21 09:00N 25°55' W 079°49'4 7.9
2019-Jan-21 08:30N 25°57' W 079°45'5 9.8
2019-Jan-21 08:00N 25°59' W 079°40'5 9.8
2019-Jan-21 07:30N 26°02' W 079°36'5 9.9
2019-Jan-21 07:00N 26°05' W 079°31'510.0
2019-Jan-21 06:30N 26°08' W 079°27'510.4
2019-Jan-21 05:59N 26°10' W 079°22'510.1
2019-Jan-21 05:30N 26°13' W 079°17'5 9.0
2019-Jan-21 05:00N 26°15' W 079°13'2 0.0
2019-Jan-19 02:51N 26°15' W 079°11'410.7
2019-Jan-19 02:30N 26°14' W 079°14'611.3
2019-Jan-19 02:00N 26°11' W 079°20'612.1
2019-Jan-19 01:30N 26°08' W 079°26'612.4
2019-Jan-19 01:00N 26°04' W 079°31'612.1
2019-Jan-19 00:30N 26°01' W 079°37'612.5
2019-Jan-19 00:00N 25°58' W 079°43'612.8
2019-Jan-18 23:30N 25°54' W 079°49'612.9
2019-Jan-18 23:00N 25°51' W 079°55'612.7
2019-Jan-18 22:30N 25°48' W 080°01'510.5
2019-Jan-18 22:01N 25°46' W 080°06'4 7.9
2019-Jan-18 21:31N 25°47' W 080°11'0 0.5
2019-Jan-18 20:53N 25°47' W 080°10'0 0.0
2019-Jan-18 20:23N 25°47' W 080°10'0 0.0
2019-Jan-18 19:56N 25°47' W 080°10'0 0.0
2019-Jan-18 19:29N 25°47' W 080°10'0 0.0
2019-Jan-18 18:56N 25°47' W 080°10'0 0.0
2019-Jan-18 18:26N 25°47' W 080°10'0 0.0
2019-Jan-18 17:59N 25°47' W 080°10'0 0.0
2019-Jan-18 17:23N 25°47' W 080°10'0 0.0
2019-Jan-18 16:56N 25°47' W 080°10'0 0.0
2019-Jan-18 16:26N 25°47' W 080°10'0 0.0
2019-Jan-18 15:59N 25°47' W 080°10'0 0.0
2019-Jan-18 15:29N 25°47' W 080°10'0 0.0
2019-Jan-18 14:59N 25°47' W 080°10'0 0.0
2019-Jan-18 14:29N 25°47' W 080°10'0 0.0
2019-Jan-18 13:59N 25°47' W 080°10'0 0.0
2019-Jan-18 13:29N 25°47' W 080°10'0 0.0
2019-Jan-18 12:59N 25°47' W 080°10'0 0.0
2019-Jan-18 12:29N 25°47' W 080°10'0 0.0
2019-Jan-18 12:00N 25°47' W 080°10'1 1.3
2019-Jan-18 11:30N 25°46' W 080°10'5 9.5
2019-Jan-18 11:00N 25°46' W 080°04'5 9.3
2019-Jan-18 10:30N 25°45' W 079°59'611.8
2019-Jan-18 10:00N 25°41' W 079°55'611.7
2019-Jan-18 09:30N 25°35' W 079°53'612.2
2019-Jan-18 09:00N 25°29' W 079°53'612.4
2019-Jan-18 08:30N 25°23' W 079°52'612.3
2019-Jan-18 08:00N 25°17' W 079°51'47117.0
2019-Jan-17 04:19N 20°45' W 086°49'620.4
2019-Jan-17 04:00N 20°40' W 086°54'1312.2
2019-Jan-17 02:59N 20°29' W 086°59'0 0.0
2019-Jan-17 02:29N 20°29' W 086°59'0 0.0
2019-Jan-17 01:59N 20°29' W 086°59'0 0.0
2019-Jan-17 01:29N 20°29' W 086°59'0 0.0
2019-Jan-17 00:59N 20°29' W 086°59'0 0.0
2019-Jan-17 00:29N 20°29' W 086°59'0 0.0
2019-Jan-16 23:56N 20°29' W 086°59'0 0.0
2019-Jan-16 23:29N 20°29' W 086°59'0 0.0
2019-Jan-16 22:59N 20°29' W 086°59'0 0.0
2019-Jan-16 22:29N 20°29' W 086°59'0 0.0
2019-Jan-16 21:56N 20°29' W 086°59'0 0.0
2019-Jan-16 21:29N 20°29' W 086°59'0 0.0
2019-Jan-16 20:59N 20°29' W 086°59'0 0.0
2019-Jan-16 20:26N 20°29' W 086°59'0 0.0
2019-Jan-16 19:59N 20°29' W 086°59'0 0.0
2019-Jan-16 19:29N 20°29' W 086°59'0 0.0
2019-Jan-16 18:59N 20°29' W 086°59'0 0.0
2019-Jan-16 18:29N 20°29' W 086°59'0 0.0
2019-Jan-16 17:59N 20°29' W 086°59'0 0.0
2019-Jan-16 17:29N 20°29' W 086°59'0 0.0
2019-Jan-16 16:59N 20°29' W 086°59'0 0.3
2019-Jan-16 16:30N 20°29' W 086°59'4 7.3
2019-Jan-16 16:00N 20°32' W 086°59'510.4
2019-Jan-16 15:30N 20°37' W 086°56'612.2
2019-Jan-16 14:59N 20°41' W 086°51'47412.4
2019-Jan-15 00:56N 25°12' W 079°49'615.1
2019-Jan-15 00:30N 25°18' W 079°47'815.2
2019-Jan-15 00:00N 25°26' W 079°47'714.9
2019-Jan-14 23:30N 25°33' W 079°48'815.2
2019-Jan-14 23:00N 25°40' W 079°53'713.2
2019-Jan-14 22:30N 25°45' W 079°57'4 7.3
2019-Jan-14 22:00N 25°46' W 080°01'612.4
2019-Jan-14 21:30N 25°46' W 080°08'2 3.9
2019-Jan-14 20:58N 25°47' W 080°10'0 0.0
2019-Jan-14 20:28N 25°47' W 080°10'0 0.0
2019-Jan-14 19:58N 25°47' W 080°10'0 0.0
2019-Jan-14 19:28N 25°47' W 080°10'0 0.0
2019-Jan-14 18:58N 25°47' W 080°10'0 0.0
2019-Jan-14 18:28N 25°47' W 080°10'0 0.0
2019-Jan-14 17:58N 25°47' W 080°10'0 0.0
2019-Jan-14 17:28N 25°47' W 080°10'0 0.0
2019-Jan-14 16:58N 25°47' W 080°10'0 0.0
2019-Jan-14 16:28N 25°47' W 080°10'0 0.0
2019-Jan-14 15:52N 25°47' W 080°10'0 0.0
2019-Jan-14 15:22N 25°47' W 080°10'0 0.0
2019-Jan-14 14:52N 25°47' W 080°10'0 0.0
2019-Jan-14 14:22N 25°47' W 080°10'0 0.0
2019-Jan-14 13:58N 25°47' W 080°10'0 0.0
2019-Jan-14 13:28N 25°47' W 080°10'0 0.0
2019-Jan-14 12:58N 25°47' W 080°10'0 0.0
2019-Jan-14 12:28N 25°47' W 080°10'0 0.0
2019-Jan-14 11:55N 25°47' W 080°10'0 0.0
2019-Jan-14 11:28N 25°47' W 080°10'0 0.1
2019-Jan-14 11:00N 25°47' W 080°10'1 1.6
2019-Jan-14 10:31N 25°46' W 080°09'510.3
2019-Jan-14 10:00N 25°46' W 080°04'5 9.7
2019-Jan-14 09:30N 25°49' W 079°59'510.3
2019-Jan-14 09:00N 25°51' W 079°54'611.1
2019-Jan-14 08:30N 25°54' W 079°49'4 8.1
2019-Jan-14 08:00N 25°57' W 079°45'3 6.6
2019-Jan-14 07:30N 25°58' W 079°42'4 7.0
2019-Jan-14 07:00N 26°00' W 079°39'5 9.8
2019-Jan-14 06:30N 26°03' W 079°34'713.1
2019-Jan-14 06:00N 26°06' W 079°28'612.8
2019-Jan-14 05:31N 26°10' W 079°22'5 9.8
2019-Jan-14 05:00N 26°12' W 079°17'  

Dump ship's entire track history